createdAt,value
2018-03-19T00:01:00.491Z,1.43
2018-03-19T00:02:04.545Z,1.44
2018-03-19T00:03:07.895Z,1.43
2018-03-19T00:04:11.307Z,1.43
2018-03-19T00:05:14.650Z,1.44
2018-03-19T00:06:17.963Z,1.43
2018-03-19T00:07:21.409Z,1.42
2018-03-19T00:08:24.703Z,1.41
2018-03-19T00:09:28.044Z,1.41
2018-03-19T00:10:31.617Z,1.41
2018-03-19T00:11:34.992Z,1.40
2018-03-19T00:12:38.404Z,1.40
2018-03-19T00:13:41.738Z,1.40
2018-03-19T00:14:45.056Z,1.40
2018-03-19T00:15:48.357Z,1.39
2018-03-19T00:16:51.914Z,1.39
2018-03-19T00:17:55.279Z,1.39
2018-03-19T00:18:58.817Z,1.40
2018-03-19T00:20:02.199Z,1.39
2018-03-19T00:21:06.481Z,1.38
2018-03-19T00:22:11.416Z,1.37
2018-03-19T00:23:14.859Z,1.37
2018-03-19T00:24:18.191Z,1.36
2018-03-19T00:25:21.588Z,1.36
2018-03-19T00:26:24.948Z,1.34
2018-03-19T00:27:28.237Z,1.33
2018-03-19T00:28:31.653Z,1.33
2018-03-19T00:29:35.860Z,1.33
2018-03-19T00:30:39.198Z,1.33
2018-03-19T00:31:44.537Z,1.32
2018-03-19T00:32:47.896Z,1.31
2018-03-19T00:33:52.466Z,1.30
2018-03-19T00:34:55.943Z,1.30
2018-03-19T00:36:00.072Z,1.29
2018-03-19T00:37:03.390Z,1.29
2018-03-19T00:38:07.460Z,1.30
2018-03-19T00:39:10.907Z,1.29
2018-03-19T00:40:15.253Z,1.28
2018-03-19T00:41:18.557Z,1.28
2018-03-19T00:42:21.896Z,1.28
2018-03-19T00:43:25.442Z,1.28
2018-03-19T00:44:28.764Z,1.28
2018-03-19T00:45:32.174Z,1.27
2018-03-19T00:46:35.556Z,1.26
2018-03-19T00:47:38.861Z,1.26
2018-03-19T00:48:43.104Z,1.26
2018-03-19T00:49:46.448Z,1.25
2018-03-19T00:50:51.924Z,1.25
2018-03-19T00:51:55.883Z,1.25
2018-03-19T00:52:59.159Z,1.25
2018-03-19T00:54:03.572Z,1.25
2018-03-19T00:55:07.000Z,1.24
2018-03-19T00:56:10.639Z,1.23
2018-03-19T00:57:14.037Z,1.23
2018-03-19T00:58:18.180Z,1.23
2018-03-19T00:59:23.567Z,1.22
2018-03-19T01:00:26.980Z,1.22
2018-03-19T01:01:30.380Z,1.22
2018-03-19T01:02:34.439Z,1.21
2018-03-19T01:03:37.836Z,1.21
2018-03-19T01:04:41.193Z,1.21
2018-03-19T01:05:44.650Z,1.21
2018-03-19T01:06:47.964Z,1.21
2018-03-19T01:07:51.294Z,1.21
2018-03-19T01:08:54.683Z,1.20
2018-03-19T01:09:58.007Z,1.20
2018-03-19T01:11:01.357Z,1.20
2018-03-19T01:12:04.768Z,1.19
2018-03-19T01:13:09.092Z,1.18
2018-03-19T01:14:12.409Z,1.18
2018-03-19T01:15:15.713Z,1.16
2018-03-19T01:16:19.051Z,1.15
2018-03-19T01:17:22.471Z,1.14
2018-03-19T01:18:25.849Z,1.14
2018-03-19T01:19:29.182Z,1.12
2018-03-19T01:20:32.579Z,1.11
2018-03-19T01:21:36.033Z,1.11
2018-03-19T01:22:39.743Z,1.11
2018-03-19T01:23:43.184Z,1.11
2018-03-19T01:24:46.988Z,1.10
2018-03-19T01:25:50.692Z,1.10
2018-03-19T01:26:54.348Z,1.11
2018-03-19T01:27:57.727Z,1.09
2018-03-19T01:29:01.114Z,1.08
2018-03-19T01:30:05.234Z,1.08
2018-03-19T01:31:08.677Z,1.08
2018-03-19T01:32:12.108Z,1.08
2018-03-19T01:33:15.472Z,1.08
2018-03-19T01:34:18.804Z,1.09
2018-03-19T01:35:22.224Z,1.08
2018-03-19T01:36:25.544Z,1.08
2018-03-19T01:37:28.893Z,1.07
2018-03-19T01:38:32.278Z,1.05
2018-03-19T01:39:35.647Z,1.04
2018-03-19T01:40:39.000Z,1.03
2018-03-19T01:41:42.472Z,1.02
2018-03-19T01:42:45.851Z,1.02
2018-03-19T01:43:49.216Z,1.02
2018-03-19T01:44:52.620Z,1.01
2018-03-19T01:45:55.945Z,1.02
2018-03-19T01:46:59.263Z,1.02
2018-03-19T01:48:02.733Z,1.02
2018-03-19T01:49:06.108Z,1.03
2018-03-19T01:50:09.525Z,1.03
2018-03-19T01:51:12.948Z,1.03
2018-03-19T01:52:16.277Z,1.02
2018-03-19T01:53:19.764Z,1.01
2018-03-19T01:54:23.109Z,1.01
2018-03-19T01:55:26.583Z,1.01
2018-03-19T01:56:30.551Z,1.00
2018-03-19T01:57:33.894Z,0.98
2018-03-19T01:58:37.360Z,0.98
2018-03-19T01:59:41.553Z,0.97
2018-03-19T02:00:44.901Z,0.97
2018-03-19T02:01:48.307Z,0.96
2018-03-19T02:02:51.984Z,0.96
2018-03-19T02:03:55.345Z,0.95
2018-03-19T02:04:58.688Z,0.94
2018-03-19T02:06:02.079Z,0.95
2018-03-19T02:07:05.421Z,0.95
2018-03-19T02:08:08.792Z,0.97
2018-03-19T02:09:12.745Z,0.97
2018-03-19T02:10:16.056Z,0.96
2018-03-19T02:11:19.632Z,0.95
2018-03-19T02:12:23.078Z,0.94
2018-03-19T02:13:26.474Z,0.94
2018-03-19T02:14:29.840Z,0.94
2018-03-19T02:15:34.387Z,0.93
2018-03-19T02:16:37.828Z,0.93
2018-03-19T02:17:41.204Z,0.91
2018-03-19T02:18:44.588Z,0.89
2018-03-19T02:19:54.730Z,0.89
2018-03-19T02:20:58.127Z,0.86
2018-03-19T02:22:01.455Z,0.86
2018-03-19T02:23:04.826Z,0.86
2018-03-19T02:24:08.189Z,0.85
2018-03-19T02:25:11.480Z,0.84
2018-03-19T02:26:14.836Z,0.84
2018-03-19T02:27:18.220Z,0.84
2018-03-19T02:28:21.803Z,0.84
2018-03-19T02:29:25.160Z,0.82
2018-03-19T02:30:28.586Z,0.81
2018-03-19T02:31:31.965Z,0.82
2018-03-19T02:32:35.312Z,0.82
2018-03-19T02:33:38.628Z,0.82
2018-03-19T02:34:42.158Z,0.82
2018-03-19T02:35:45.520Z,0.82
2018-03-19T02:36:48.904Z,0.82
2018-03-19T02:37:52.210Z,0.82
2018-03-19T02:38:55.526Z,0.83
2018-03-19T02:39:58.854Z,0.83
2018-03-19T02:41:02.173Z,0.83
2018-03-19T02:42:05.505Z,0.84
2018-03-19T02:43:08.897Z,0.83
2018-03-19T02:44:12.318Z,0.85
2018-03-19T02:45:15.642Z,0.85
2018-03-19T02:46:19.091Z,0.85
2018-03-19T02:47:22.433Z,0.86
2018-03-19T02:48:26.115Z,0.86
2018-03-19T02:49:29.418Z,0.83
2018-03-19T02:50:32.756Z,0.83
2018-03-19T02:51:36.179Z,0.81
2018-03-19T02:52:39.594Z,0.79
2018-03-19T02:53:42.916Z,0.76
2018-03-19T02:54:46.232Z,0.75
2018-03-19T02:55:49.530Z,0.74
2018-03-19T02:56:52.865Z,0.74
2018-03-19T02:57:56.182Z,0.74
2018-03-19T02:58:59.481Z,0.74
2018-03-19T03:00:05.407Z,0.74
2018-03-19T03:01:08.715Z,0.73
2018-03-19T03:02:12.079Z,0.73
2018-03-19T03:03:15.415Z,0.73
2018-03-19T03:04:18.736Z,0.73
2018-03-19T03:05:22.037Z,0.73
2018-03-19T03:06:25.766Z,0.70
2018-03-19T03:07:29.963Z,0.69
2018-03-19T03:08:33.274Z,0.67
2018-03-19T03:09:36.692Z,0.68
2018-03-19T03:10:40.055Z,0.68
2018-03-19T03:11:43.376Z,0.67
2018-03-19T03:12:46.758Z,0.67
2018-03-19T03:13:50.159Z,0.67
2018-03-19T03:14:53.535Z,0.67
2018-03-19T03:15:56.827Z,0.65
2018-03-19T03:17:00.326Z,0.65
2018-03-19T03:18:03.840Z,0.65
2018-03-19T03:19:07.170Z,0.64
2018-03-19T03:20:10.496Z,0.64
2018-03-19T03:21:13.858Z,0.63
2018-03-19T03:22:17.181Z,0.62
2018-03-19T03:23:20.571Z,0.63
2018-03-19T03:24:23.950Z,0.62
2018-03-19T03:25:28.461Z,0.63
2018-03-19T03:26:31.824Z,0.62
2018-03-19T03:27:35.291Z,0.61
2018-03-19T03:28:39.192Z,0.62
2018-03-19T03:29:42.625Z,0.62
2018-03-19T03:30:45.931Z,0.61
2018-03-19T03:31:49.246Z,0.61
2018-03-19T03:32:52.598Z,0.61
2018-03-19T03:33:56.021Z,0.60
2018-03-19T03:34:59.473Z,0.60
2018-03-19T03:36:03.832Z,0.59
2018-03-19T03:37:07.334Z,0.59
2018-03-19T03:38:10.653Z,0.61
2018-03-19T03:39:14.071Z,0.63
2018-03-19T03:40:17.362Z,0.63
2018-03-19T03:41:20.650Z,0.66
2018-03-19T03:42:23.995Z,0.66
2018-03-19T03:43:27.310Z,0.66
2018-03-19T03:44:30.689Z,0.66
2018-03-19T03:45:33.976Z,0.65
2018-03-19T03:46:37.287Z,0.63
2018-03-19T03:47:40.689Z,0.60
2018-03-19T03:48:43.990Z,0.58
2018-03-19T03:49:47.443Z,0.57
2018-03-19T03:50:50.880Z,0.55
2018-03-19T03:51:54.278Z,0.53
2018-03-19T03:52:58.602Z,0.52
2018-03-19T03:54:02.272Z,0.52
2018-03-19T03:55:05.644Z,0.51
2018-03-19T03:56:08.957Z,0.48
2018-03-19T03:57:13.233Z,0.47
2018-03-19T03:58:16.673Z,0.46
2018-03-19T03:59:19.992Z,0.46
2018-03-19T04:00:25.522Z,0.47
2018-03-19T04:01:28.863Z,0.45
2018-03-19T04:02:32.259Z,0.45
2018-03-19T04:03:35.643Z,0.44
2018-03-19T04:04:39.087Z,0.43
2018-03-19T04:05:42.421Z,0.42
2018-03-19T04:06:45.969Z,0.41
2018-03-19T04:07:49.292Z,0.40
2018-03-19T04:08:52.592Z,0.40
2018-03-19T04:09:55.974Z,0.39
2018-03-19T04:10:59.313Z,0.37
2018-03-19T04:12:02.632Z,0.35
2018-03-19T04:13:05.961Z,0.33
2018-03-19T04:14:09.267Z,0.31
2018-03-19T04:15:13.389Z,0.29
2018-03-19T04:16:16.792Z,0.27
2018-03-19T04:17:20.104Z,0.25
2018-03-19T04:18:23.440Z,0.24
2018-03-19T04:19:26.798Z,0.24
2018-03-19T04:20:30.109Z,0.23
2018-03-19T04:21:34.301Z,0.23
2018-03-19T04:22:37.666Z,0.22
2018-03-19T04:23:41.028Z,0.21
2018-03-19T04:24:44.358Z,0.19
2018-03-19T04:25:47.757Z,0.16
2018-03-19T04:26:51.181Z,0.14
2018-03-19T04:27:54.476Z,0.13
2018-03-19T04:28:57.893Z,0.13
2018-03-19T04:30:01.247Z,0.10
2018-03-19T04:31:04.578Z,0.09
2018-03-19T04:32:07.880Z,0.07
2018-03-19T04:33:11.232Z,0.07
2018-03-19T04:34:14.552Z,0.07
2018-03-19T04:35:18.005Z,0.08
2018-03-19T04:36:21.456Z,0.08
2018-03-19T04:37:24.981Z,0.08
2018-03-19T04:38:28.311Z,0.08
2018-03-19T04:39:32.269Z,0.08
2018-03-19T04:40:35.656Z,0.08
2018-03-19T04:41:39.012Z,0.05
2018-03-19T04:42:42.444Z,0.06
2018-03-19T04:43:45.810Z,0.05
2018-03-19T04:44:49.171Z,0.04
2018-03-19T04:45:52.801Z,0.03
2018-03-19T04:46:56.104Z,0.02
2018-03-19T04:47:59.560Z,0.02
2018-03-19T04:49:02.870Z,0.01
2018-03-19T04:50:06.262Z,-0.02
2018-03-19T04:51:09.587Z,-0.05
2018-03-19T04:52:12.963Z,-0.06
2018-03-19T04:53:16.535Z,-0.08
2018-03-19T04:54:19.868Z,-0.08
2018-03-19T04:55:23.328Z,-0.08
2018-03-19T04:56:29.361Z,-0.10
2018-03-19T04:57:34.572Z,-0.13
2018-03-19T04:58:37.973Z,-0.13
2018-03-19T04:59:42.382Z,-0.12
2018-03-19T05:00:46.683Z,-0.15
2018-03-19T05:01:50.067Z,-0.17
2018-03-19T05:02:53.521Z,-0.20
2018-03-19T05:03:57.724Z,-0.23
2018-03-19T05:05:01.974Z,-0.24
2018-03-19T05:06:05.381Z,-0.25
2018-03-19T05:07:08.716Z,-0.24
2018-03-19T05:08:12.091Z,-0.23
2018-03-19T05:09:15.516Z,-0.22
2018-03-19T05:10:19.369Z,-0.21
2018-03-19T05:11:22.848Z,-0.23
2018-03-19T05:12:26.262Z,-0.22
2018-03-19T05:13:29.593Z,-0.25
2018-03-19T05:14:33.008Z,-0.26
2018-03-19T05:15:36.376Z,-0.26
2018-03-19T05:16:39.725Z,-0.27
2018-03-19T05:17:43.940Z,-0.28
2018-03-19T05:18:49.690Z,-0.29
2018-03-19T05:19:53.068Z,-0.29
2018-03-19T05:20:56.390Z,-0.29
2018-03-19T05:21:59.728Z,-0.29
2018-03-19T05:23:04.066Z,-0.29
2018-03-19T05:24:07.427Z,-0.30
2018-03-19T05:25:10.847Z,-0.30
2018-03-19T05:26:14.158Z,-0.31
2018-03-19T05:27:17.485Z,-0.32
2018-03-19T05:28:21.092Z,-0.33
2018-03-19T05:29:24.394Z,-0.33
2018-03-19T05:30:27.802Z,-0.33
2018-03-19T05:31:31.110Z,-0.34
2018-03-19T05:32:34.534Z,-0.35
2018-03-19T05:33:37.879Z,-0.36
2018-03-19T05:34:41.270Z,-0.36
2018-03-19T05:35:44.670Z,-0.34
2018-03-19T05:36:48.067Z,-0.34
2018-03-19T05:37:51.427Z,-0.34
2018-03-19T05:38:54.927Z,-0.34
2018-03-19T05:39:58.434Z,-0.35
2018-03-19T05:41:02.484Z,-0.35
2018-03-19T05:42:05.820Z,-0.36
2018-03-19T05:43:09.290Z,-0.36
2018-03-19T05:44:12.616Z,-0.35
2018-03-19T05:45:15.990Z,-0.34
2018-03-19T05:46:19.309Z,-0.32
2018-03-19T05:47:22.669Z,-0.31
2018-03-19T05:48:26.039Z,-0.31
2018-03-19T05:49:29.346Z,-0.32
2018-03-19T05:50:32.689Z,-0.31
2018-03-19T05:51:36.043Z,-0.31
2018-03-19T05:52:39.360Z,-0.30
2018-03-19T05:53:43.053Z,-0.30
2018-03-19T05:54:46.417Z,-0.29
2018-03-19T05:55:50.333Z,-0.27
2018-03-19T05:56:53.801Z,-0.28
2018-03-19T05:57:57.122Z,-0.27
2018-03-19T05:59:00.498Z,-0.26
2018-03-19T06:00:03.816Z,-0.26
2018-03-19T06:01:08.556Z,-0.23
2018-03-19T06:02:11.894Z,-0.24
2018-03-19T06:03:15.235Z,-0.24
2018-03-19T06:04:18.583Z,-0.22
2018-03-19T06:05:22.996Z,-0.20
2018-03-19T06:06:26.793Z,-0.16
2018-03-19T06:07:30.431Z,-0.11
2018-03-19T06:08:33.863Z,-0.09
2018-03-19T06:09:37.164Z,-0.07
2018-03-19T06:10:40.575Z,-0.07
2018-03-19T06:11:44.236Z,-0.07
2018-03-19T06:12:48.307Z,-0.06
2018-03-19T06:13:51.642Z,-0.07
2018-03-19T06:14:54.995Z,-0.07
2018-03-19T06:15:58.347Z,-0.08
2018-03-19T06:17:01.700Z,-0.08
2018-03-19T06:18:05.076Z,-0.08
2018-03-19T06:19:08.488Z,-0.10
2018-03-19T06:20:11.836Z,-0.11
2018-03-19T06:21:15.604Z,-0.13
2018-03-19T06:22:18.878Z,-0.15
2018-03-19T06:23:22.250Z,-0.16
2018-03-19T06:24:25.610Z,-0.15
2018-03-19T06:25:29.083Z,-0.15
2018-03-19T06:26:32.541Z,-0.16
2018-03-19T06:27:35.914Z,-0.16
2018-03-19T06:28:39.498Z,-0.16
2018-03-19T06:29:42.892Z,-0.16
2018-03-19T06:30:46.235Z,-0.16
2018-03-19T06:31:50.429Z,-0.13
2018-03-19T06:32:53.805Z,-0.12
2018-03-19T06:33:57.325Z,-0.11
2018-03-19T06:35:01.321Z,-0.10
2018-03-19T06:36:04.681Z,-0.09
2018-03-19T06:37:08.002Z,-0.06
2018-03-19T06:38:12.174Z,-0.06
2018-03-19T06:39:16.021Z,-0.04
2018-03-19T06:40:19.424Z,-0.03
2018-03-19T06:41:22.761Z,-0.02
2018-03-19T06:42:26.101Z,-0.01
2018-03-19T06:43:29.470Z,0.00
2018-03-19T06:44:33.174Z,0.02
2018-03-19T06:45:36.477Z,0.04
2018-03-19T06:46:39.843Z,0.06
2018-03-19T06:47:43.148Z,0.08
2018-03-19T06:48:46.603Z,0.10
2018-03-19T06:49:51.300Z,0.11
2018-03-19T06:50:54.549Z,0.13
2018-03-19T06:51:57.997Z,0.13
2018-03-19T06:53:01.797Z,0.13
2018-03-19T06:54:05.112Z,0.12
2018-03-19T06:55:09.341Z,0.10
2018-03-19T06:56:12.676Z,0.07
2018-03-19T06:57:16.187Z,0.04
2018-03-19T06:58:19.775Z,0.03
2018-03-19T06:59:23.109Z,0.01
2018-03-19T07:00:26.445Z,-0.02
2018-03-19T07:01:31.268Z,-0.07
2018-03-19T07:02:34.819Z,-0.09
2018-03-19T07:03:38.289Z,-0.10
2018-03-19T07:04:41.656Z,-0.09
2018-03-19T07:05:45.183Z,-0.08
2018-03-19T07:06:48.624Z,-0.07
2018-03-19T07:07:51.959Z,-0.05
2018-03-19T07:08:55.375Z,-0.04
2018-03-19T07:09:58.793Z,-0.01
2018-03-19T07:11:02.229Z,0.01
2018-03-19T07:12:06.553Z,0.06
2018-03-19T07:13:09.852Z,0.13
2018-03-19T07:14:13.406Z,0.18
2018-03-19T07:15:16.788Z,0.21
2018-03-19T07:16:20.173Z,0.27
2018-03-19T07:17:23.505Z,0.31
2018-03-19T07:18:26.918Z,0.35
2018-03-19T07:19:31.040Z,0.39
2018-03-19T07:20:34.369Z,0.39
2018-03-19T07:21:37.688Z,0.39
2018-03-19T07:22:41.121Z,0.39
2018-03-19T07:23:44.525Z,0.41
2018-03-19T07:24:47.872Z,0.42
2018-03-19T07:25:51.211Z,0.42
2018-03-19T07:26:55.484Z,0.43
2018-03-19T07:27:59.700Z,0.45
2018-03-19T07:29:03.137Z,0.46
2018-03-19T07:30:06.922Z,0.49
2018-03-19T07:31:10.219Z,0.49
2018-03-19T07:32:13.701Z,0.51
2018-03-19T07:33:17.048Z,0.50
2018-03-19T07:34:20.431Z,0.51
2018-03-19T07:35:23.881Z,0.51
2018-03-19T07:36:27.455Z,0.53
2018-03-19T07:37:30.806Z,0.54
2018-03-19T07:38:34.499Z,0.55
2018-03-19T07:39:37.872Z,0.56
2018-03-19T07:40:41.189Z,0.58
2018-03-19T07:41:44.761Z,0.55
2018-03-19T07:42:48.292Z,0.53
2018-03-19T07:43:52.485Z,0.51
2018-03-19T07:44:55.845Z,0.51
2018-03-19T07:45:59.150Z,0.49
2018-03-19T07:47:02.535Z,0.51
2018-03-19T07:48:05.877Z,0.51
2018-03-19T07:49:10.398Z,0.53
2018-03-19T07:50:13.797Z,0.53
2018-03-19T07:51:17.268Z,0.55
2018-03-19T07:52:20.608Z,0.56
2018-03-19T07:53:24.020Z,0.57
2018-03-19T07:54:27.373Z,0.58
2018-03-19T07:55:30.782Z,0.57
2018-03-19T07:56:34.263Z,0.55
2018-03-19T07:57:37.626Z,0.54
2018-03-19T07:58:40.958Z,0.55
2018-03-19T07:59:44.335Z,0.54
2018-03-19T08:00:47.645Z,0.54
2018-03-19T08:01:52.085Z,0.56
2018-03-19T08:02:55.501Z,0.58
2018-03-19T08:03:58.827Z,0.59
2018-03-19T08:05:02.414Z,0.60
2018-03-19T08:06:05.813Z,0.60
2018-03-19T08:07:09.185Z,0.60
2018-03-19T08:08:13.003Z,0.59
2018-03-19T08:09:16.388Z,0.60
2018-03-19T08:10:19.875Z,0.59
2018-03-19T08:11:24.577Z,0.61
2018-03-19T08:12:29.284Z,0.60
2018-03-19T08:13:32.613Z,0.57
2018-03-19T08:14:36.066Z,0.56
2018-03-19T08:15:39.423Z,0.58
2018-03-19T08:16:42.860Z,0.60
2018-03-19T08:17:46.228Z,0.62
2018-03-19T08:18:49.548Z,0.65
2018-03-19T08:19:52.887Z,0.68
2018-03-19T08:20:56.412Z,0.71
2018-03-19T08:21:59.748Z,0.72
2018-03-19T08:23:03.107Z,0.73
2018-03-19T08:24:06.401Z,0.76
2018-03-19T08:25:10.424Z,0.79
2018-03-19T08:26:13.724Z,0.83
2018-03-19T08:27:17.110Z,0.87
2018-03-19T08:28:20.483Z,0.91
2018-03-19T08:29:23.833Z,0.96
2018-03-19T08:30:27.193Z,1.01
2018-03-19T08:31:30.555Z,1.05
2018-03-19T08:32:33.999Z,1.08
2018-03-19T08:33:37.336Z,1.11
2018-03-19T08:34:40.681Z,1.14
2018-03-19T08:35:44.861Z,1.17
2018-03-19T08:36:48.244Z,1.18
2018-03-19T08:37:51.528Z,1.19
2018-03-19T08:38:54.883Z,1.20
2018-03-19T08:39:58.227Z,1.23
2018-03-19T08:41:02.367Z,1.24
2018-03-19T08:42:05.754Z,1.24
2018-03-19T08:43:09.449Z,1.24
2018-03-19T08:44:13.013Z,1.23
2018-03-19T08:45:16.388Z,1.24
2018-03-19T08:46:19.905Z,1.24
2018-03-19T08:47:23.244Z,1.26
2018-03-19T08:48:26.554Z,1.27
2018-03-19T08:49:29.902Z,1.28
2018-03-19T08:50:33.227Z,1.27
2018-03-19T08:51:37.412Z,1.27
2018-03-19T08:52:40.922Z,1.26
2018-03-19T08:53:44.259Z,1.25
2018-03-19T08:54:48.162Z,1.24
2018-03-19T08:55:51.508Z,1.20
2018-03-19T08:56:55.269Z,1.17
2018-03-19T08:57:59.796Z,1.17
2018-03-19T08:59:03.165Z,1.17
2018-03-19T09:00:06.526Z,1.18
2018-03-19T09:01:10.347Z,1.17
2018-03-19T09:02:15.688Z,1.18
2018-03-19T09:03:18.997Z,1.19
2018-03-19T09:04:22.437Z,1.20
2018-03-19T09:05:25.744Z,1.19
2018-03-19T09:06:29.065Z,1.21
2018-03-19T09:07:32.438Z,1.22
2018-03-19T09:08:36.394Z,1.23
2018-03-19T09:09:39.793Z,1.27
2018-03-19T09:10:43.085Z,1.31
2018-03-19T09:11:46.400Z,1.34
2018-03-19T09:12:49.736Z,1.37
2018-03-19T09:13:53.136Z,1.41
2018-03-19T09:14:56.634Z,1.44
2018-03-19T09:15:59.949Z,1.45
2018-03-19T09:17:03.366Z,1.47
2018-03-19T09:18:06.819Z,1.48
2018-03-19T09:19:10.128Z,1.48
2018-03-19T09:20:13.468Z,1.48
2018-03-19T09:21:16.788Z,1.48
2018-03-19T09:22:20.147Z,1.46
2018-03-19T09:23:23.538Z,1.43
2018-03-19T09:24:26.862Z,1.40
2018-03-19T09:25:30.172Z,1.40
2018-03-19T09:26:33.492Z,1.39
2018-03-19T09:27:36.814Z,1.38
2018-03-19T09:28:40.182Z,1.40
2018-03-19T09:29:44.341Z,1.40
2018-03-19T09:30:47.712Z,1.37
2018-03-19T09:31:51.009Z,1.35
2018-03-19T09:32:54.380Z,1.33
2018-03-19T09:33:58.335Z,1.32
2018-03-19T09:35:02.138Z,1.31
2018-03-19T09:36:05.467Z,1.32
2018-03-19T09:37:08.770Z,1.34
2018-03-19T09:38:12.142Z,1.37
2018-03-19T09:39:15.523Z,1.40
2018-03-19T09:40:18.840Z,1.40
2018-03-19T09:41:22.162Z,1.40
2018-03-19T09:42:25.500Z,1.40
2018-03-19T09:43:33.180Z,1.37
2018-03-19T09:44:36.516Z,1.39
2018-03-19T09:45:39.852Z,1.40
2018-03-19T09:46:43.348Z,1.42
2018-03-19T09:47:46.617Z,1.42
2018-03-19T09:48:49.922Z,1.41
2018-03-19T09:49:53.275Z,1.41
2018-03-19T09:50:56.668Z,1.43
2018-03-19T09:52:00.004Z,1.42
2018-03-19T09:53:03.345Z,1.44
2018-03-19T09:54:06.708Z,1.47
2018-03-19T09:55:10.041Z,1.51
2018-03-19T09:56:13.412Z,1.55
2018-03-19T09:57:16.773Z,1.58
2018-03-19T09:58:20.117Z,1.62
2018-03-19T09:59:23.463Z,1.64
2018-03-19T10:00:26.871Z,1.67
2018-03-19T10:01:30.230Z,1.71
2018-03-19T10:02:34.848Z,1.73
2018-03-19T10:03:38.161Z,1.74
2018-03-19T10:04:41.524Z,1.76
2018-03-19T10:05:44.852Z,1.77
2018-03-19T10:06:48.179Z,1.77
2018-03-19T10:07:51.504Z,1.78
2018-03-19T10:08:54.908Z,1.79
2018-03-19T10:09:58.250Z,1.80
2018-03-19T10:11:01.612Z,1.79
2018-03-19T10:12:04.944Z,1.77
2018-03-19T10:13:08.349Z,1.78
2018-03-19T10:14:11.727Z,1.82
2018-03-19T10:15:15.070Z,1.83
2018-03-19T10:16:18.443Z,1.85
2018-03-19T10:17:21.811Z,1.85
2018-03-19T10:18:25.117Z,1.85
2018-03-19T10:19:28.500Z,1.86
2018-03-19T10:20:31.884Z,1.87
2018-03-19T10:21:35.728Z,1.89
2018-03-19T10:22:39.058Z,1.92
2018-03-19T10:23:42.421Z,1.95
2018-03-19T10:24:45.848Z,2.00
2018-03-19T10:25:49.286Z,2.03
2018-03-19T10:26:52.624Z,2.06
2018-03-19T10:27:56.011Z,2.08
2018-03-19T10:28:59.467Z,2.10
2018-03-19T10:30:02.772Z,2.11
2018-03-19T10:31:06.180Z,2.11
2018-03-19T10:32:09.535Z,2.11
2018-03-19T10:33:12.895Z,2.12
2018-03-19T10:34:16.244Z,2.14
2018-03-19T10:35:19.588Z,2.17
2018-03-19T10:36:22.931Z,2.19
2018-03-19T10:37:26.256Z,2.24
2018-03-19T10:38:29.640Z,2.28
2018-03-19T10:39:33.040Z,2.31
2018-03-19T10:40:36.396Z,2.33
2018-03-19T10:41:39.757Z,2.35
2018-03-19T10:42:44.311Z,2.38
2018-03-19T10:43:48.473Z,2.41
2018-03-19T10:44:51.863Z,2.41
2018-03-19T10:45:55.167Z,2.42
2018-03-19T10:46:58.576Z,2.41
2018-03-19T10:48:01.969Z,2.42
2018-03-19T10:49:05.326Z,2.46
2018-03-19T10:50:08.645Z,2.47
2018-03-19T10:51:12.073Z,2.49
2018-03-19T10:52:15.400Z,2.52
2018-03-19T10:53:18.885Z,2.52
2018-03-19T10:54:22.208Z,2.51
2018-03-19T10:55:25.522Z,2.51
2018-03-19T10:56:28.905Z,2.50
2018-03-19T10:57:32.999Z,2.51
2018-03-19T10:58:36.371Z,2.54
2018-03-19T10:59:39.888Z,2.56
2018-03-19T11:00:43.286Z,2.59
2018-03-19T11:01:46.673Z,2.62
2018-03-19T11:03:09.687Z,2.63
2018-03-19T11:04:14.993Z,2.61
2018-03-19T11:05:23.948Z,2.63
2018-03-19T11:06:32.854Z,2.65
2018-03-19T11:07:41.854Z,2.66
2018-03-19T11:08:48.642Z,2.66
2018-03-19T11:09:52.074Z,2.67
2018-03-19T11:10:55.391Z,2.69
2018-03-19T11:11:58.925Z,2.74
2018-03-19T11:13:02.175Z,2.79
2018-03-19T11:14:05.628Z,2.82
2018-03-19T11:15:09.078Z,2.84
2018-03-19T11:16:12.396Z,2.85
2018-03-19T11:17:15.730Z,2.86
2018-03-19T11:18:19.091Z,2.90
2018-03-19T11:19:22.437Z,2.94
2018-03-19T11:20:25.808Z,2.96
2018-03-19T11:21:29.113Z,2.97
2018-03-19T11:22:32.428Z,2.98
2018-03-19T11:23:36.976Z,2.97
2018-03-19T11:24:40.750Z,2.98
2018-03-19T11:25:46.281Z,2.99
2018-03-19T11:26:49.969Z,3.00
2018-03-19T11:27:54.288Z,3.02
2018-03-19T11:28:57.681Z,3.04
2018-03-19T11:30:00.980Z,3.07
2018-03-19T11:31:04.350Z,3.11
2018-03-19T11:32:07.999Z,3.11
2018-03-19T11:33:11.417Z,3.14
2018-03-19T11:34:14.745Z,3.16
2018-03-19T11:35:18.131Z,3.18
2018-03-19T11:36:23.792Z,3.20
2018-03-19T11:37:28.353Z,3.22
2018-03-19T11:38:31.650Z,3.22
2018-03-19T11:39:35.049Z,3.23
2018-03-19T11:40:38.595Z,3.25
2018-03-19T11:41:41.921Z,3.25
2018-03-19T11:42:45.339Z,3.23
2018-03-19T11:43:48.646Z,3.21
2018-03-19T11:44:52.075Z,3.20
2018-03-19T11:45:57.080Z,3.18
2018-03-19T11:47:00.945Z,3.17
2018-03-19T11:48:04.452Z,3.17
2018-03-19T11:49:07.865Z,3.19
2018-03-19T11:50:12.732Z,3.22
2018-03-19T11:51:17.141Z,3.25
2018-03-19T11:52:20.673Z,3.26
2018-03-19T11:53:24.036Z,3.27
2018-03-19T11:54:27.391Z,3.28
2018-03-19T11:55:30.694Z,3.30
2018-03-19T11:56:34.024Z,3.32
2018-03-19T11:57:37.396Z,3.34
2018-03-19T11:58:40.752Z,3.35
2018-03-19T11:59:44.090Z,3.37
2018-03-19T12:00:50.229Z,3.38
2018-03-19T12:01:53.753Z,3.37
2018-03-19T12:02:57.339Z,3.37
2018-03-19T12:04:00.733Z,3.38
2018-03-19T12:05:04.076Z,3.39
2018-03-19T12:06:07.440Z,3.39
2018-03-19T12:07:10.852Z,3.40
2018-03-19T12:08:14.233Z,3.40
2018-03-19T12:09:17.550Z,3.40
2018-03-19T12:10:20.983Z,3.43
2018-03-19T12:11:24.690Z,3.44
2018-03-19T12:12:28.093Z,3.47
2018-03-19T12:13:33.340Z,3.48
2018-03-19T12:14:36.936Z,3.49
2018-03-19T12:15:40.389Z,3.52
2018-03-19T12:16:43.824Z,3.54
2018-03-19T12:17:47.134Z,3.57
2018-03-19T12:18:50.740Z,3.59
2018-03-19T12:19:54.175Z,3.61
2018-03-19T12:20:57.553Z,3.62
2018-03-19T12:22:00.896Z,3.62
2018-03-19T12:23:07.064Z,3.63
2018-03-19T12:24:10.526Z,3.65
2018-03-19T12:25:14.065Z,3.66
2018-03-19T12:26:17.361Z,3.68
2018-03-19T12:27:20.680Z,3.70
2018-03-19T12:28:24.013Z,3.70
2018-03-19T12:29:27.478Z,3.72
2018-03-19T12:30:31.079Z,3.73
2018-03-19T12:31:34.468Z,3.75
2018-03-19T12:32:37.919Z,3.78
2018-03-19T12:33:41.221Z,3.81
2018-03-19T12:34:44.796Z,3.85
2018-03-19T12:35:48.355Z,3.89
2018-03-19T12:36:51.789Z,3.91
2018-03-19T12:37:55.199Z,3.93
2018-03-19T12:38:58.584Z,3.94
2018-03-19T12:40:02.101Z,3.94
2018-03-19T12:41:05.551Z,3.95
2018-03-19T12:42:08.997Z,3.96
2018-03-19T12:43:12.433Z,3.97
2018-03-19T12:44:15.799Z,3.96
2018-03-19T12:45:19.145Z,3.94
2018-03-19T12:46:22.701Z,3.95
2018-03-19T12:47:26.014Z,3.96
2018-03-19T12:48:29.506Z,3.98
2018-03-19T12:49:32.847Z,3.99
2018-03-19T12:50:37.137Z,3.99
2018-03-19T12:51:40.565Z,3.99
2018-03-19T12:52:43.878Z,4.00
2018-03-19T12:53:47.293Z,4.02
2018-03-19T12:54:50.683Z,4.05
2018-03-19T12:55:54.112Z,4.09
2018-03-19T12:56:57.426Z,4.14
2018-03-19T12:58:00.823Z,4.19
2018-03-19T12:59:04.303Z,4.24
2018-03-19T13:00:08.701Z,4.29
2018-03-19T13:01:12.086Z,4.32
2018-03-19T13:02:15.419Z,4.35
2018-03-19T13:03:20.470Z,4.38
2018-03-19T13:04:23.782Z,4.44
2018-03-19T13:05:27.073Z,4.47
2018-03-19T13:06:30.463Z,4.51
2018-03-19T13:07:33.928Z,4.55
2018-03-19T13:08:37.396Z,4.59
2018-03-19T13:09:40.710Z,4.60
2018-03-19T13:10:44.259Z,4.61
2018-03-19T13:11:47.692Z,4.58
2018-03-19T13:12:51.034Z,4.58
2018-03-19T13:13:54.399Z,4.58
2018-03-19T13:14:57.792Z,4.57
2018-03-19T13:16:01.225Z,4.58
2018-03-19T13:17:04.744Z,4.60
2018-03-19T13:18:08.137Z,4.62
2018-03-19T13:19:11.625Z,4.63
2018-03-19T13:20:14.955Z,4.64
2018-03-19T13:21:18.562Z,4.65
2018-03-19T13:22:21.937Z,4.64
2018-03-19T13:23:25.329Z,4.62
2018-03-19T13:24:29.423Z,4.58
2018-03-19T13:25:33.192Z,4.55
2018-03-19T13:26:36.637Z,4.57
2018-03-19T13:27:40.024Z,4.57
2018-03-19T13:28:43.473Z,4.59
2018-03-19T13:29:46.812Z,4.61
2018-03-19T13:30:50.448Z,4.62
2018-03-19T13:31:54.245Z,4.64
2018-03-19T13:32:57.756Z,4.66
2018-03-19T13:34:01.229Z,4.69
2018-03-19T13:35:04.866Z,4.70
2018-03-19T13:36:08.422Z,4.71
2018-03-19T13:37:11.843Z,4.73
2018-03-19T13:38:15.252Z,4.74
2018-03-19T13:39:18.681Z,4.76
2018-03-19T13:40:22.090Z,4.78
2018-03-19T13:41:25.484Z,4.77
2018-03-19T13:42:28.825Z,4.78
2018-03-19T13:43:32.193Z,4.79
2018-03-19T13:44:35.544Z,4.81
2018-03-19T13:45:38.852Z,4.81
2018-03-19T13:46:43.120Z,4.82
2018-03-19T13:47:46.914Z,4.84
2018-03-19T13:48:50.309Z,4.86
2018-03-19T13:49:53.766Z,4.87
2018-03-19T13:50:57.146Z,4.88
2018-03-19T13:52:00.506Z,4.87
2018-03-19T13:53:03.864Z,4.89
2018-03-19T13:54:07.329Z,4.88
2018-03-19T13:55:10.773Z,4.88
2018-03-19T13:56:14.157Z,4.89
2018-03-19T13:57:17.650Z,4.90
2018-03-19T13:58:21.113Z,4.90
2018-03-19T13:59:24.473Z,4.91
2018-03-19T14:00:27.798Z,4.92
2018-03-19T14:01:31.288Z,4.93
2018-03-19T14:02:34.632Z,4.95